Latest Weather Observations for Lajamanu

IDD60801

Issued at 7:01 pm CST Monday 29 May 2017 (issued every 30 minutes, with the page automatically refreshed every 10 minutes)

About weather observations | Map of weather stations | Latest weather observations for NT | Other Formats
Station Details ID: 014829 Name: LAJAMANU AIRPORT Lat: -18.33 Lon: 130.64 Height: 315.6 m
Data from the previous 72 hours. | See also: Recent months at Lajamanu
Date/Time
CST
Temp
°C
App
Temp
°C
Dew
Point
°C
Rel
Hum
%
Delta-T
°C
Wind Press
QNH
hPa
Press
MSL
hPa
Rain since
9am
mm
Dir  Spd
km/h
Gust
km/h
Spd
kts
Gust
kts
29/07:00pm 21.6 17.9 0.2 24 9.8 ENE 9 11 5 6 1018.5 1017.3 0.0
29/06:30pm 23.8 20.0 -0.5 20 11.1 E 9 13 5 7 1018.1 1016.9 0.0
29/06:00pm 26.1 20.8 -0.8 17 12.5 ENE 17 24 9 13 1017.8 1016.5 0.0
29/05:30pm 27.3 21.5 -1.6 15 13.3 ENE 19 28 10 15 1017.4 1016.1 0.0
29/05:00pm 28.3 21.5 -1.7 14 13.9 ENE 24 32 13 17 1017.1 1015.8 0.0
29/04:30pm 29.2 22.9 -1.0 14 14.3 E 22 35 12 19 1016.9 1015.6 0.0
29/04:00pm 29.8 23.6 -0.5 14 14.5 E 22 35 12 19 1016.8 1015.5 0.0
29/03:30pm 29.7 23.5 -0.6 14 14.5 ENE 22 33 12 18 1017.0 1015.7 0.0
29/03:00pm 29.8 23.2 -0.5 14 14.5 E 24 37 13 20 1016.9 1015.6 0.0
29/02:30pm 30.1 23.5 -0.3 14 14.6 E 24 37 13 20 1017.2 1015.9 0.0
29/02:00pm 30.0 23.0 -0.4 14 14.6 E 26 35 14 19 1017.4 1016.1 0.0
29/01:30pm 29.9 23.7 -0.5 14 14.6 E 22 37 12 20 1017.9 1016.7 0.0
29/01:00pm 29.3 23.7 0.0 15 14.1 E 19 33 10 18 1018.6 1017.4 0.0
29/12:30pm 28.8 22.6 -0.4 15 13.9 E 22 37 12 20 1019.0 1017.8 0.0
29/12:00pm 28.4 22.8 1.0 17 13.3 E 20 30 11 16 1019.3 1018.1 0.0
29/11:30am 27.7 21.7 1.2 18 12.9 E 22 32 12 17 1019.7 1018.4 0.0
29/11:00am 27.0 20.7 1.4 19 12.5 E 24 37 13 20 1019.9 1018.6 0.0
29/10:30am 25.9 18.6 -0.2 18 12.2 E 28 43 15 23 1019.7 1018.4 0.0
29/10:10am 26.0 18.7 -0.1 18 12.3 E 28 46 15 25 1019.5 1018.2 0.0
29/10:00am 25.3 18.1 0.8 20 11.6 E 28 41 15 22 1019.3 1018.1 0.0
29/09:30am 23.9 18.5 2.7 25 10.3 E 20 35 11 19 1019.0 1017.8 0.0
29/09:00am 22.4 18.0 4.5 31 8.9 E 17 26 9 14 1018.7 1017.5 0.0
29/08:30am 19.4 16.7 5.8 41 6.8 ESE 9 13 5 7 1018.5 1017.3 0.0
29/08:00am 18.1 15.4 5.7 44 6.2 E 9 11 5 6 1018.0 1016.8 0.0
29/07:30am 17.3 14.8 4.9 44 6.0 SE 7 9 4 5 1017.9 1016.7 0.0
29/07:00am 18.4 15.5 4.9 41 6.6 ESE 9 13 5 7 1017.4 1016.1 0.0
29/06:30am 18.6 15.3 4.8 40 6.7 ESE 11 15 6 8 1016.8 1015.5 0.0
29/06:00am 19.3 16.0 4.6 38 7.2 E 11 15 6 8 1016.3 1015.0 0.0
29/05:30am 19.3 16.0 4.6 38 7.2 E 11 13 6 7 1015.8 1014.6 0.0
29/05:00am 19.4 16.9 4.7 38 7.2 ESE 7 11 4 6 1015.8 1014.6 0.0
29/04:30am 19.6 16.7 4.9 38 7.2 ESE 9 11 5 6 1015.9 1014.7 0.0
29/04:00am 20.2 17.4 5.1 37 7.5 SE 9 13 5 7 1015.9 1014.7 0.0
29/03:30am 19.8 16.9 4.7 37 7.4 ESE 9 11 5 6 1016.3 1015.0 0.0
29/03:00am 19.5 16.6 4.8 38 7.2 ESE 9 13 5 7 1016.5 1015.2 0.0
29/02:30am 19.4 16.7 5.5 40 6.9 ESE 9 9 5 5 1016.3 1015.0 0.0
29/02:00am 19.1 16.6 4.8 39 7.0 ESE 7 7 4 4 1016.7 1015.4 0.0
29/01:30am 19.6 17.2 5.3 39 7.1 ESE 7 11 4 6 1016.8 1015.5 0.0
29/01:00am 19.3 17.0 5.0 39 7.1 SE 6 7 3 4 1016.7 1015.4 0.0
29/12:30am 19.8 17.2 4.3 36 7.6 SE 7 9 4 5 1016.7 1015.4 0.0
29/12:00am 20.3 17.9 4.4 35 7.8 ESE 6 7 3 4 1016.9 1015.6 0.0
 
Date/Time
CST
Temp
°C
App
Temp
°C
Dew
Point
°C
Rel
Hum
%
Delta-T
°C
Wind Press
QNH
hPa
Press
MSL
hPa
Rain since
9am
mm
Dir  Spd
km/h
Gust
km/h
Spd
kts
Gust
kts
28/11:30pm 20.9 18.5 4.5 34 8.1 ESE 6 7 3 4 1017.2 1015.9 0.0
28/11:00pm 21.2 18.6 4.3 33 8.3 ESE 7 9 4 5 1017.0 1015.7 0.0
28/10:30pm 21.4 18.8 4.0 32 8.5 ENE 7 7 4 4 1017.2 1015.9 0.0
28/10:00pm 21.7 19.0 3.9 31 8.7 ESE 7 9 4 5 1017.0 1015.7 0.0
28/09:30pm 22.8 20.4 4.3 30 9.2 SE 6 7 3 4 1016.9 1015.6 0.0
28/09:00pm 22.9 20.3 3.4 28 9.6 SE 6 7 3 4 1016.8 1015.5 0.0
28/08:30pm 23.8 20.9 2.6 25 10.3 ESE 7 9 4 5 1016.4 1015.1 0.0
28/08:00pm 25.1 21.9 3.1 24 10.9 ESE 9 11 5 6 1016.2 1014.9 0.0
28/07:30pm 25.6 22.6 2.3 22 11.4 ESE 7 11 4 6 1015.8 1014.6 0.0
28/07:00pm 26.5 22.7 1.7 20 12.1 ESE 11 13 6 7 1015.4 1014.2 0.0
28/06:30pm 27.2 23.4 1.6 19 12.5 ESE 11 15 6 8 1015.1 1013.9 0.0
28/06:00pm 28.3 23.6 0.9 17 13.3 ESE 15 20 8 11 1014.8 1013.5 0.0
28/05:30pm 29.1 24.3 -0.1 15 14.0 E 15 20 8 11 1014.7 1013.4 0.0
28/05:00pm 29.8 24.6 0.4 15 14.3 E 17 26 9 14 1014.6 1013.3 0.0
28/04:30pm 30.4 24.6 -0.1 14 14.8 E 20 33 11 18 1014.6 1013.3 0.0
28/04:00pm 30.9 24.8 0.3 14 15.0 ESE 22 32 12 17 1014.5 1013.2 0.0
28/03:30pm 31.1 25.4 -0.5 13 15.3 E 19 28 10 15 1014.5 1013.2 0.0
28/03:00pm 31.1 24.5 -0.5 13 15.3 E 24 37 13 20 1014.8 1013.5 0.0
28/02:30pm 32.1 26.7 1.3 14 15.5 ENE 19 37 10 20 1015.1 1013.9 0.0
28/02:00pm 31.3 24.8 0.6 14 15.2 E 24 35 13 19 1015.3 1014.1 0.0
28/01:30pm 31.5 26.0 1.8 15 15.0 E 20 33 11 18 1015.7 1014.5 0.0
28/01:00pm 31.0 25.4 1.4 15 14.8 E 20 30 11 16 1016.4 1015.1 0.0
28/12:30pm 30.1 25.6 2.4 17 14.0 E 15 24 8 13 1017.0 1015.7 0.0
28/12:00pm 29.5 25.2 3.5 19 13.3 ENE 15 20 8 11 1017.5 1016.2 0.0
28/11:30am 28.6 24.3 3.5 20 12.8 E 15 24 8 13 1017.8 1016.5 0.0
28/11:00am 27.6 22.9 3.3 21 12.3 E 17 24 9 13 1018.1 1016.9 0.0
28/10:30am 26.5 21.9 3.7 23 11.5 E 17 22 9 12 1018.4 1017.2 0.0
28/10:00am 25.4 21.6 4.0 25 10.8 E 13 19 7 10 1018.3 1017.1 0.0
28/09:30am 22.7 19.4 4.7 31 9.0 ESE 11 15 6 8 1018.2 1017.0 0.0
28/09:00am 19.8 17.1 5.5 39 7.1 SE 9 13 5 7 1017.9 1016.7 0.0
28/08:30am 16.9 14.6 5.8 48 5.5 SSE 7 11 4 6 1017.7 1016.4 0.0
28/08:00am 13.5 12.3 6.6 63 3.4 S 2 9 1 5 1017.3 1016.0 0.0
28/07:30am 10.7 9.7 5.5 70 2.4 CALM 0 0 0 0 1017.0 1015.7 0.0
28/07:00am 10.3 9.1 4.7 68 2.6 CALM 0 0 0 0 1016.7 1015.4 0.0
28/06:30am 11.1 10.0 5.0 66 2.8 CALM 0 0 0 0 1016.4 1015.1 0.0
28/06:00am 11.4 9.1 4.6 63 3.1 SSE 6 7 3 4 1016.2 1014.9 0.0
28/05:30am 12.6 10.3 5.5 62 3.4 SSE 7 9 4 5 1016.0 1014.8 0.0
28/05:00am 11.9 10.0 5.1 63 3.2 SSW 4 6 2 3 1016.0 1014.8 0.0
28/04:30am 12.2 10.3 4.9 61 3.4 S 4 6 2 3 1016.0 1014.8 0.0
28/04:00am 12.3 9.9 4.5 59 3.6 SE 6 6 3 3 1015.9 1014.7 0.0
28/03:30am 13.0 10.7 4.9 58 3.8 SSE 6 7 3 4 1016.0 1014.8 0.0
28/03:00am 13.7 11.2 4.8 55 4.2 SSE 7 9 4 5 1016.5 1015.2 0.0
28/02:30am 13.1 10.8 5.0 58 3.8 SSE 6 9 3 5 1016.6 1015.3 0.0
28/02:00am 12.9 10.6 4.8 58 3.8 S 6 7 3 4 1016.6 1015.3 0.0
28/01:30am 13.4 12.2 4.8 56 4.0 CALM 0 0 0 0 1016.5 1015.2 0.0
28/01:00am 13.6 11.7 4.7 55 4.2 SW 4 6 2 3 1016.8 1015.5 0.0
28/12:30am 13.9 11.5 4.2 52 4.5 WSW 6 6 3 3 1016.9 1015.6 0.0
28/12:00am 14.7 12.1 3.2 46 5.3 WSW 6 7 3 4 1017.1 1015.8 0.0
 
Date/Time
CST
Temp
°C
App
Temp
°C
Dew
Point
°C
Rel
Hum
%
Delta-T
°C
Wind Press
QNH
hPa
Press
MSL
hPa
Rain since
9am
mm
Dir  Spd
km/h
Gust
km/h
Spd
kts
Gust
kts
27/11:30pm 16.9 14.3 3.2 40 6.4 NE 6 7 3 4 1017.2 1015.9 0.0
27/11:00pm 19.1 15.9 3.3 35 7.5 NE 9 11 5 6 1017.2 1015.9 0.0
27/10:30pm 20.1 16.7 3.8 34 7.9 NE 11 13 6 7 1017.1 1015.8 0.0
27/10:00pm 17.7 14.6 3.6 39 6.7 ENE 9 11 5 6 1017.1 1015.8 0.0
27/09:30pm 18.0 15.0 4.2 40 6.6 ENE 9 11 5 6 1017.1 1015.8 0.0
27/09:00pm 17.8 14.7 3.7 39 6.7 E 9 9 5 5 1016.9 1015.6 0.0
27/08:30pm 19.0 15.9 3.6 36 7.4 E 9 11 5 6 1016.6 1015.3 0.0
27/08:00pm 19.3 16.1 3.1 34 7.7 E 9 11 5 6 1016.0 1014.8 0.0
27/07:30pm 21.4 18.2 3.1 30 8.8 E 9 11 5 6 1015.6 1014.4 0.0
27/07:00pm 22.7 19.4 2.2 26 9.8 ENE 9 11 5 6 1015.4 1014.2 0.0
27/06:30pm 25.7 21.9 1.8 21 11.6 E 11 13 6 7 1015.2 1014.0 0.0
27/06:00pm 28.0 23.7 0.7 17 13.2 E 13 22 7 12 1015.0 1013.7 0.0
27/05:30pm 29.6 24.4 0.2 15 14.3 ESE 17 26 9 14 1014.8 1013.5 0.0
27/05:00pm 30.3 25.2 0.8 15 14.5 E 17 24 9 13 1014.8 1013.5 0.0
27/04:30pm 30.9 25.7 0.3 14 15.0 E 17 24 9 13 1014.7 1013.4 0.0
27/04:00pm 31.0 24.9 0.4 14 15.0 E 22 32 12 17 1014.6 1013.3 0.0
27/03:30pm 31.5 26.8 0.8 14 15.2 E 15 26 8 14 1014.7 1013.4 0.0
27/03:00pm 31.5 25.8 0.8 14 15.2 E 20 35 11 19 1015.0 1013.7 0.0
27/02:30pm 31.5 25.5 0.8 14 15.2 NE 22 32 12 17 1015.3 1014.1 0.0
27/02:00pm 31.9 26.5 1.1 14 15.4 ESE 19 28 10 15 1015.5 1014.3 0.0
27/01:30pm 31.2 25.7 0.6 14 15.1 E 19 32 10 17 1016.0 1014.8 0.0
27/01:00pm 30.9 25.9 1.3 15 14.8 ENE 17 28 9 15 1016.6 1015.3 0.0
27/12:30pm 30.8 25.2 1.2 15 14.7 ENE 20 41 11 22 1017.0 1015.7 0.0
27/12:00pm 29.6 23.8 0.2 15 14.2 NE 20 30 11 16 1017.5 1016.2 0.0
27/11:30am 29.2 23.8 2.5 18 13.4 NE 20 30 11 16 1017.9 1016.7 0.0
27/11:00am 28.2 22.4 2.4 19 12.9 ENE 22 35 12 19 1018.1 1016.9 0.0
27/10:30am 26.7 20.6 2.6 21 11.9 ENE 24 32 13 17 1018.3 1017.1 0.0
27/10:00am 25.2 20.0 2.6 23 11.1 ENE 19 35 10 19 1018.4 1017.2 0.0
27/09:30am 23.4 18.8 3.9 28 9.7 E 17 22 9 12 1018.4 1017.2 0.0
27/09:00am 20.0 17.3 5.6 39 7.2 SE 9 11 5 6 1018.1 1016.9 0.0
27/08:30am 17.1 14.9 6.0 48 5.5 SSE 7 9 4 5 1017.9 1016.7 0.0
27/08:00am 13.4 11.4 6.3 62 3.4 SSE 6 7 3 4 1017.6 1016.3 0.0
27/07:30am 11.8 10.0 5.2 64 3.1 SSE 4 7 2 4 1017.4 1016.1 0.0
27/07:00am 11.6 9.2 5.3 65 3.0 SE 7 9 4 5 1017.2 1015.9 0.0
27/06:30am 11.9 9.7 6.0 67 2.8 SSE 7 9 4 5 1016.7 1015.4 0.0
27/06:00am 10.8 8.6 5.3 69 2.6 S 6 7 3 4 1016.4 1015.1 0.0
27/05:30am 11.2 10.1 4.9 65 2.9 CALM 0 0 0 0 1016.2 1014.9 0.0
27/05:00am 12.3 11.3 5.7 64 3.1 CALM 0 0 0 0 1016.0 1014.8 0.0
27/04:30am 11.9 10.5 5.5 65 3.0 SSW 2 6 1 3 1016.0 1014.8 0.0
27/04:00am 11.8 10.7 5.2 64 3.1 CALM 0 0 0 0 1015.9 1014.7 0.0
27/03:30am 12.3 10.8 5.2 62 3.3 S 2 6 1 3 1016.0 1014.8 0.0
27/03:00am 12.4 11.0 5.3 62 3.3 SW 2 7 1 4 1016.3 1015.0 0.0
27/02:30am 12.6 11.5 5.1 60 3.5 CALM 0 0 0 0 1016.5 1015.2 0.0
27/02:00am 13.0 11.9 4.9 58 3.8 CALM 0 0 0 0 1016.5 1015.2 0.0
27/01:30am 13.7 12.6 5.1 56 4.1 CALM 0 0 0 0 1016.5 1015.2 0.0
27/01:00am 13.6 12.4 4.5 54 4.3 CALM 0 0 0 0 1016.6 1015.3 0.0
27/12:30am 14.2 12.2 4.2 51 4.7 WNW 4 6 2 3 1016.7 1015.4 0.0
27/12:00am 15.1 13.8 4.2 48 5.1 CALM 0 0 0 0 1016.8 1015.5 0.0
 
Date/Time
CST
Temp
°C
App
Temp
°C
Dew
Point
°C
Rel
Hum
%
Delta-T
°C
Wind Press
QNH
hPa
Press
MSL
hPa
Rain since
9am
mm
Dir  Spd
km/h
Gust
km/h
Spd
kts
Gust
kts
26/11:30pm 16.6 14.1 4.6 45 5.8 NE 7 9 4 5 1016.9 1015.6 0.0
26/11:00pm 15.9 13.3 4.0 45 5.6 ESE 7 7 4 4 1017.0 1015.7 0.0
26/10:30pm 17.5 14.8 3.8 40 6.5 ESE 7 7 4 4 1016.9 1015.6 0.0
26/10:00pm 18.8 15.7 3.4 36 7.3 ENE 9 11 5 6 1016.8 1015.5 0.0
26/09:30pm 19.9 16.4 3.6 34 7.8 NE 11 11 6 6 1016.8 1015.5 0.0
26/09:00pm 20.5 17.0 3.3 32 8.3 NE 11 11 6 6 1016.7 1015.4 0.0
26/08:30pm 21.4 18.0 4.0 32 8.5 NE 11 13 6 7 1016.5 1015.2 0.0
26/08:00pm 21.8 18.3 3.5 30 8.9 ENE 11 11 6 6 1016.0 1014.8 0.0
26/07:30pm 22.5 19.0 3.6 29 9.3 ENE 11 13 6 7 1015.7 1014.5 0.0

Other Formats:

Comma delimited format used in spreadsheet applications
http://www.bom.gov.au/fwo/IDD60801/IDD60801.94231.axf

JavaScript Object Notation format (JSON) in row-major order
http://www.bom.gov.au/fwo/IDD60801/IDD60801.94231.json